sensor_id;sensor_type;location;lat;lon;timestamp;pressure;altitude;pressure_sealevel;temperature;humidity
19672;BME280;9983;51.114;13.788;2022-10-31T00:04:42;99767.41;;;12.75;100.00
19672;BME280;9983;51.114;13.788;2022-10-31T00:09:43;99771.97;;;12.89;100.00
19672;BME280;9983;51.114;13.788;2022-10-31T00:14:43;99770.81;;;12.69;100.00
19672;BME280;9983;51.114;13.788;2022-10-31T00:19:43;99764.94;;;12.88;100.00
19672;BME280;9983;51.114;13.788;2022-10-31T00:24:43;99768.09;;;12.54;100.00
19672;BME280;9983;51.114;13.788;2022-10-31T00:29:44;99772.63;;;12.54;100.00
19672;BME280;9983;51.114;13.788;2022-10-31T00:34:44;99779.03;;;12.53;100.00
19672;BME280;9983;51.114;13.788;2022-10-31T00:39:44;99791.41;;;12.62;100.00
19672;BME280;9983;51.114;13.788;2022-10-31T00:44:45;99777.16;;;12.31;100.00
19672;BME280;9983;51.114;13.788;2022-10-31T00:49:45;99776.88;;;12.26;100.00
19672;BME280;9983;51.114;13.788;2022-10-31T00:54:45;99773.72;;;12.45;100.00
19672;BME280;9983;51.114;13.788;2022-10-31T00:59:46;99782.53;;;12.31;100.00
19672;BME280;9983;51.114;13.788;2022-10-31T01:04:46;99780.22;;;12.28;100.00
19672;BME280;9983;51.114;13.788;2022-10-31T01:09:46;99789.13;;;12.51;100.00
19672;BME280;9983;51.114;13.788;2022-10-31T01:14:46;99803.34;;;12.37;100.00
19672;BME280;9983;51.114;13.788;2022-10-31T01:19:47;99798.56;;;12.47;100.00
19672;BME280;9983;51.114;13.788;2022-10-31T01:24:47;99797.47;;;12.10;100.00
19672;BME280;9983;51.114;13.788;2022-10-31T01:29:47;99789.81;;;12.22;100.00
19672;BME280;9983;51.114;13.788;2022-10-31T01:34:47;99790.03;;;12.21;100.00
19672;BME280;9983;51.114;13.788;2022-10-31T01:39:48;99789.06;;;12.05;100.00
19672;BME280;9983;51.114;13.788;2022-10-31T01:44:55;99796.50;;;12.03;100.00
19672;BME280;9983;51.114;13.788;2022-10-31T01:49:59;99793.28;;;12.08;100.00
19672;BME280;9983;51.114;13.788;2022-10-31T01:55:09;99789.41;;;12.10;100.00
19672;BME280;9983;51.114;13.788;2022-10-31T02:00:12;99795.03;;;11.93;100.00
19672;BME280;9983;51.114;13.788;2022-10-31T02:05:16;99793.44;;;11.75;100.00
19672;BME280;9983;51.114;13.788;2022-10-31T02:10:19;99799.78;;;11.27;100.00
19672;BME280;9983;51.114;13.788;2022-10-31T02:15:21;99803.97;;;11.85;100.00
19672;BME280;9983;51.114;13.788;2022-10-31T02:20:25;99803.75;;;11.39;100.00
19672;BME280;9983;51.114;13.788;2022-10-31T02:36:07;99805.72;;;11.62;100.00
19672;BME280;9983;51.114;13.788;2022-10-31T02:41:32;99803.00;;;11.70;100.00
19672;BME280;9983;51.114;13.788;2022-10-31T02:51:43;99809.38;;;11.69;100.00
19672;BME280;9983;51.114;13.788;2022-10-31T02:56:43;99813.75;;;11.78;100.00
19672;BME280;9983;51.114;13.788;2022-10-31T03:02:06;99807.59;;;11.53;100.00
19672;BME280;9983;51.114;13.788;2022-10-31T03:12:37;99829.28;;;11.44;100.00
19672;BME280;9983;51.114;13.788;2022-10-31T03:17:50;99824.75;;;11.44;100.00
19672;BME280;9983;51.114;13.788;2022-10-31T03:22:55;99816.50;;;11.54;100.00
19672;BME280;9983;51.114;13.788;2022-10-31T03:27:56;99829.72;;;11.55;100.00
19672;BME280;9983;51.114;13.788;2022-10-31T03:32:59;99821.50;;;11.57;100.00
19672;BME280;9983;51.114;13.788;2022-10-31T03:38:02;99826.88;;;11.57;100.00
19672;BME280;9983;51.114;13.788;2022-10-31T03:43:15;99835.63;;;11.51;100.00
19672;BME280;9983;51.114;13.788;2022-10-31T03:48:18;99836.97;;;11.38;100.00
19672;BME280;9983;51.114;13.788;2022-10-31T03:53:26;99840.22;;;11.18;100.00
19672;BME280;9983;51.114;13.788;2022-10-31T03:58:33;99838.72;;;10.91;100.00
19672;BME280;9983;51.114;13.788;2022-10-31T04:03:37;99851.13;;;11.16;100.00
19672;BME280;9983;51.114;13.788;2022-10-31T04:08:44;99845.75;;;11.00;100.00
19672;BME280;9983;51.114;13.788;2022-10-31T04:13:46;99849.78;;;11.12;100.00
19672;BME280;9983;51.114;13.788;2022-10-31T04:18:47;99848.78;;;11.21;100.00
19672;BME280;9983;51.114;13.788;2022-10-31T04:23:47;99849.59;;;11.06;100.00
19672;BME280;9983;51.114;13.788;2022-10-31T04:28:47;99852.13;;;10.99;100.00
19672;BME280;9983;51.114;13.788;2022-10-31T04:33:48;99850.09;;;11.25;100.00
19672;BME280;9983;51.114;13.788;2022-10-31T04:38:48;99852.13;;;11.07;100.00
19672;BME280;9983;51.114;13.788;2022-10-31T04:43:48;99846.06;;;11.13;100.00
19672;BME280;9983;51.114;13.788;2022-10-31T04:48:48;99857.50;;;10.75;100.00
19672;BME280;9983;51.114;13.788;2022-10-31T04:53:49;99859.19;;;11.08;100.00
19672;BME280;9983;51.114;13.788;2022-10-31T04:58:49;99861.69;;;11.18;100.00
19672;BME280;9983;51.114;13.788;2022-10-31T05:03:49;99864.69;;;11.15;100.00
19672;BME280;9983;51.114;13.788;2022-10-31T05:08:50;99856.50;;;10.84;100.00
19672;BME280;9983;51.114;13.788;2022-10-31T05:13:50;99855.50;;;11.09;100.00
19672;BME280;9983;51.114;13.788;2022-10-31T05:18:50;99864.22;;;11.03;100.00
19672;BME280;9983;51.114;13.788;2022-10-31T05:23:51;99864.53;;;10.76;100.00
19672;BME280;9983;51.114;13.788;2022-10-31T05:28:52;99865.22;;;10.70;100.00
19672;BME280;9983;51.114;13.788;2022-10-31T05:33:52;99869.59;;;10.95;100.00
19672;BME280;9983;51.114;13.788;2022-10-31T05:38:52;99871.91;;;10.90;100.00
19672;BME280;9983;51.114;13.788;2022-10-31T05:43:53;99870.22;;;10.73;100.00
19672;BME280;9983;51.114;13.788;2022-10-31T05:48:53;99869.22;;;10.82;100.00
19672;BME280;9983;51.114;13.788;2022-10-31T05:53:53;99872.56;;;10.59;100.00
19672;BME280;9983;51.114;13.788;2022-10-31T05:58:53;99880.81;;;10.82;100.00
19672;BME280;9983;51.114;13.788;2022-10-31T06:03:54;99881.59;;;10.50;100.00
19672;BME280;9983;51.114;13.788;2022-10-31T06:08:54;99883.97;;;10.61;100.00
19672;BME280;9983;51.114;13.788;2022-10-31T06:13:54;99883.38;;;10.25;100.00
19672;BME280;9983;51.114;13.788;2022-10-31T06:18:55;99886.44;;;10.55;100.00
19672;BME280;9983;51.114;13.788;2022-10-31T06:23:55;99899.72;;;10.73;100.00
19672;BME280;9983;51.114;13.788;2022-10-31T06:28:55;99895.38;;;10.72;100.00
19672;BME280;9983;51.114;13.788;2022-10-31T06:33:56;99908.81;;;10.88;100.00
19672;BME280;9983;51.114;13.788;2022-10-31T06:38:56;99919.88;;;10.93;100.00
19672;BME280;9983;51.114;13.788;2022-10-31T06:43:57;99921.69;;;10.68;100.00
19672;BME280;9983;51.114;13.788;2022-10-31T06:48:57;99921.88;;;10.91;100.00
19672;BME280;9983;51.114;13.788;2022-10-31T06:53:57;99938.66;;;11.01;100.00
19672;BME280;9983;51.114;13.788;2022-10-31T06:58:58;99930.94;;;11.06;100.00
19672;BME280;9983;51.114;13.788;2022-10-31T07:03:58;99934.13;;;11.01;100.00
19672;BME280;9983;51.114;13.788;2022-10-31T07:08:58;99944.72;;;11.11;100.00
19672;BME280;9983;51.114;13.788;2022-10-31T07:13:59;99945.41;;;11.37;100.00
19672;BME280;9983;51.114;13.788;2022-10-31T07:18:59;99947.41;;;11.35;100.00
19672;BME280;9983;51.114;13.788;2022-10-31T07:23:59;99945.19;;;11.39;100.00
19672;BME280;9983;51.114;13.788;2022-10-31T07:28:59;99949.41;;;11.33;100.00
19672;BME280;9983;51.114;13.788;2022-10-31T07:34:00;99953.22;;;11.96;100.00
19672;BME280;9983;51.114;13.788;2022-10-31T07:39:00;99954.38;;;12.01;100.00
19672;BME280;9983;51.114;13.788;2022-10-31T07:44:02;99950.63;;;12.19;100.00
19672;BME280;9983;51.114;13.788;2022-10-31T07:49:02;99954.31;;;12.18;100.00
19672;BME280;9983;51.114;13.788;2022-10-31T07:54:03;99950.16;;;12.54;100.00
19672;BME280;9983;51.114;13.788;2022-10-31T07:59:03;99950.50;;;12.51;100.00
19672;BME280;9983;51.114;13.788;2022-10-31T08:04:03;99958.69;;;12.88;100.00
19672;BME280;9983;51.114;13.788;2022-10-31T08:09:03;99951.78;;;13.17;100.00
19672;BME280;9983;51.114;13.788;2022-10-31T08:14:04;99959.66;;;13.41;100.00
19672;BME280;9983;51.114;13.788;2022-10-31T08:19:04;99957.69;;;13.73;99.35
19672;BME280;9983;51.114;13.788;2022-10-31T08:24:05;99967.66;;;13.87;100.00
19672;BME280;9983;51.114;13.788;2022-10-31T08:29:05;99959.22;;;14.19;100.00
19672;BME280;9983;51.114;13.788;2022-10-31T08:34:05;99950.47;;;14.17;100.00
19672;BME280;9983;51.114;13.788;2022-10-31T08:39:06;99950.22;;;14.41;100.00
19672;BME280;9983;51.114;13.788;2022-10-31T08:44:06;99948.59;;;14.62;100.00
19672;BME280;9983;51.114;13.788;2022-10-31T08:49:06;99946.72;;;14.77;100.00
19672;BME280;9983;51.114;13.788;2022-10-31T08:54:07;99954.81;;;14.98;100.00
19672;BME280;9983;51.114;13.788;2022-10-31T08:59:07;99948.00;;;15.24;100.00
19672;BME280;9983;51.114;13.788;2022-10-31T09:04:07;99952.38;;;15.46;100.00
19672;BME280;9983;51.114;13.788;2022-10-31T09:09:07;99947.25;;;15.72;100.00
19672;BME280;9983;51.114;13.788;2022-10-31T09:14:08;99949.03;;;15.93;100.00
19672;BME280;9983;51.114;13.788;2022-10-31T09:19:08;99958.16;;;15.92;96.27
19672;BME280;9983;51.114;13.788;2022-10-31T09:24:08;99964.66;;;16.32;100.00
19672;BME280;9983;51.114;13.788;2022-10-31T09:29:09;99955.31;;;16.82;98.04
19672;BME280;9983;51.114;13.788;2022-10-31T09:34:09;99954.53;;;16.82;88.38
19672;BME280;9983;51.114;13.788;2022-10-31T09:39:09;99961.25;;;17.19;87.37
19672;BME280;9983;51.114;13.788;2022-10-31T09:50:12;99958.41;;;17.86;84.74
19672;BME280;9983;51.114;13.788;2022-10-31T09:55:17;99952.13;;;18.05;83.01
19672;BME280;9983;51.114;13.788;2022-10-31T10:00:21;99953.34;;;18.23;85.32
19672;BME280;9983;51.114;13.788;2022-10-31T10:05:28;99957.88;;;18.35;79.59
19672;BME280;9983;51.114;13.788;2022-10-31T10:10:51;99948.22;;;18.66;76.84
19672;BME280;9983;51.114;13.788;2022-10-31T10:26:38;99951.75;;;20.10;72.71
19672;BME280;9983;51.114;13.788;2022-10-31T10:31:42;99939.69;;;20.61;68.97
19672;BME280;9983;51.114;13.788;2022-10-31T10:36:53;99928.88;;;21.02;66.06
19672;BME280;9983;51.114;13.788;2022-10-31T10:41:57;99927.50;;;21.65;63.95
19672;BME280;9983;51.114;13.788;2022-10-31T10:47:17;99923.72;;;22.24;61.67
19672;BME280;9983;51.114;13.788;2022-10-31T10:52:48;99916.50;;;22.98;59.00
19672;BME280;9983;51.114;13.788;2022-10-31T10:58:01;99916.31;;;23.16;56.92
19672;BME280;9983;51.114;13.788;2022-10-31T11:03:02;99919.50;;;23.75;55.85
19672;BME280;9983;51.114;13.788;2022-10-31T11:08:05;99904.72;;;24.31;53.67
19672;BME280;9983;51.114;13.788;2022-10-31T11:13:21;99902.28;;;25.00;50.51
19672;BME280;9983;51.114;13.788;2022-10-31T11:18:25;99899.88;;;26.57;49.26
19672;BME280;9983;51.114;13.788;2022-10-31T11:23:27;99883.44;;;26.87;48.18
19672;BME280;9983;51.114;13.788;2022-10-31T11:28:29;99881.25;;;26.89;49.32
19672;BME280;9983;51.114;13.788;2022-10-31T11:33:34;99872.44;;;26.77;46.36
19672;BME280;9983;51.114;13.788;2022-10-31T11:38:40;99876.72;;;25.58;51.15
19672;BME280;9983;51.114;13.788;2022-10-31T11:43:54;99869.72;;;25.41;50.05
19672;BME280;9983;51.114;13.788;2022-10-31T11:48:56;99864.94;;;25.26;51.93
19672;BME280;9983;51.114;13.788;2022-10-31T11:54:01;99862.19;;;25.26;52.24
19672;BME280;9983;51.114;13.788;2022-10-31T11:59:05;99860.50;;;23.84;54.36
19672;BME280;9983;51.114;13.788;2022-10-31T12:04:08;99849.16;;;22.92;57.40
19672;BME280;9983;51.114;13.788;2022-10-31T12:09:44;99844.44;;;23.37;57.57
19672;BME280;9983;51.114;13.788;2022-10-31T12:20:39;99837.47;;;23.46;57.28
19672;BME280;9983;51.114;13.788;2022-10-31T12:26:06;99830.84;;;23.42;57.27
19672;BME280;9983;51.114;13.788;2022-10-31T12:53:03;99811.28;;;23.34;59.27
19672;BME280;9983;51.114;13.788;2022-10-31T12:58:14;99801.84;;;22.91;58.36
19672;BME280;9983;51.114;13.788;2022-10-31T13:03:28;99794.28;;;22.53;58.85
19672;BME280;9983;51.114;13.788;2022-10-31T13:08:53;99793.38;;;23.26;57.46
19672;BME280;9983;51.114;13.788;2022-10-31T13:19:21;99786.25;;;23.25;57.21
19672;BME280;9983;51.114;13.788;2022-10-31T13:24:30;99780.63;;;23.49;57.53
19672;BME280;9983;51.114;13.788;2022-10-31T13:29:38;99767.97;;;23.48;56.22
19672;BME280;9983;51.114;13.788;2022-10-31T13:34:45;99778.47;;;23.17;57.52
19672;BME280;9983;51.114;13.788;2022-10-31T13:45:15;99775.31;;;23.25;57.70
19672;BME280;9983;51.114;13.788;2022-10-31T13:50:22;99766.44;;;23.52;56.66
19672;BME280;9983;51.114;13.788;2022-10-31T13:55:37;99758.63;;;23.82;56.29
19672;BME280;9983;51.114;13.788;2022-10-31T14:00:38;99748.50;;;23.82;56.40
19672;BME280;9983;51.114;13.788;2022-10-31T14:05:39;99755.69;;;23.67;56.67
19672;BME280;9983;51.114;13.788;2022-10-31T14:10:46;99755.84;;;23.43;57.36
19672;BME280;9983;51.114;13.788;2022-10-31T14:16:00;99740.97;;;23.34;57.43
19672;BME280;9983;51.114;13.788;2022-10-31T14:21:01;99730.22;;;23.11;58.03
19672;BME280;9983;51.114;13.788;2022-10-31T14:31:41;99738.66;;;22.59;59.96
19672;BME280;9983;51.114;13.788;2022-10-31T14:42:19;99724.81;;;22.21;62.75
19672;BME280;9983;51.114;13.788;2022-10-31T14:47:36;99716.63;;;21.92;64.90
19672;BME280;9983;51.114;13.788;2022-10-31T14:52:40;99713.38;;;21.67;67.50
19672;BME280;9983;51.114;13.788;2022-10-31T14:57:55;99712.22;;;21.40;69.67
19672;BME280;9983;51.114;13.788;2022-10-31T15:03:11;99710.09;;;21.18;71.06
19672;BME280;9983;51.114;13.788;2022-10-31T15:08:25;99704.97;;;20.87;72.31
19672;BME280;9983;51.114;13.788;2022-10-31T15:13:26;99702.69;;;20.61;74.55
19672;BME280;9983;51.114;13.788;2022-10-31T15:18:27;99693.19;;;20.52;75.83
19672;BME280;9983;51.114;13.788;2022-10-31T15:23:29;99690.28;;;20.23;77.70
19672;BME280;9983;51.114;13.788;2022-10-31T15:28:30;99689.13;;;20.01;79.42
19672;BME280;9983;51.114;13.788;2022-10-31T15:33:41;99682.38;;;19.19;85.90
19672;BME280;9983;51.114;13.788;2022-10-31T15:38:41;99672.41;;;19.13;85.70
19672;BME280;9983;51.114;13.788;2022-10-31T15:43:44;99680.09;;;18.98;86.02
19672;BME280;9983;51.114;13.788;2022-10-31T15:48:48;99673.56;;;18.80;86.98
19672;BME280;9983;51.114;13.788;2022-10-31T15:53:50;99682.63;;;18.43;89.71
19672;BME280;9983;51.114;13.788;2022-10-31T15:58:53;99673.63;;;18.49;89.20
19672;BME280;9983;51.114;13.788;2022-10-31T16:09:21;99670.63;;;18.26;90.48
19672;BME280;9983;51.114;13.788;2022-10-31T16:14:25;99663.66;;;18.11;90.64
19672;BME280;9983;51.114;13.788;2022-10-31T16:19:31;99655.59;;;17.98;91.62
19672;BME280;9983;51.114;13.788;2022-10-31T16:24:35;99658.38;;;17.85;92.38
19672;BME280;9983;51.114;13.788;2022-10-31T16:29:43;99664.94;;;17.71;93.21
19672;BME280;9983;51.114;13.788;2022-10-31T16:34:43;99653.91;;;17.59;93.39
19672;BME280;9983;51.114;13.788;2022-10-31T16:39:43;99652.75;;;17.35;94.08
19672;BME280;9983;51.114;13.788;2022-10-31T16:44:46;99657.78;;;17.25;94.36
19672;BME280;9983;51.114;13.788;2022-10-31T16:49:48;99657.84;;;17.05;95.42
19672;BME280;9983;51.114;13.788;2022-10-31T16:54:49;99652.81;;;17.09;95.14
19672;BME280;9983;51.114;13.788;2022-10-31T16:59:52;99652.19;;;17.20;93.85
19672;BME280;9983;51.114;13.788;2022-10-31T17:04:53;99653.69;;;17.03;95.16
19672;BME280;9983;51.114;13.788;2022-10-31T17:09:54;99644.94;;;17.01;95.16
19672;BME280;9983;51.114;13.788;2022-10-31T17:14:54;99642.84;;;17.03;94.32
19672;BME280;9983;51.114;13.788;2022-10-31T17:19:54;99632.06;;;16.77;96.11
19672;BME280;9983;51.114;13.788;2022-10-31T17:24:55;99647.91;;;16.66;97.28
19672;BME280;9983;51.114;13.788;2022-10-31T17:29:55;99638.72;;;16.41;98.21
19672;BME280;9983;51.114;13.788;2022-10-31T17:34:55;99635.41;;;16.52;97.01
19672;BME280;9983;51.114;13.788;2022-10-31T17:39:55;99623.72;;;16.58;96.42
19672;BME280;9983;51.114;13.788;2022-10-31T17:44:56;99625.41;;;16.20;98.55
19672;BME280;9983;51.114;13.788;2022-10-31T17:49:56;99619.41;;;16.31;97.26
19672;BME280;9983;51.114;13.788;2022-10-31T17:54:56;99622.94;;;16.38;96.57
19672;BME280;9983;51.114;13.788;2022-10-31T17:59:57;99612.50;;;16.35;96.78
19672;BME280;9983;51.114;13.788;2022-10-31T18:04:57;99606.25;;;16.41;95.91
19672;BME280;9983;51.114;13.788;2022-10-31T18:09:58;99608.78;;;16.23;97.12
19672;BME280;9983;51.114;13.788;2022-10-31T18:14:58;99610.63;;;16.16;97.88
19672;BME280;9983;51.114;13.788;2022-10-31T18:19:58;99609.59;;;16.17;98.12
19672;BME280;9983;51.114;13.788;2022-10-31T18:24:59;99610.44;;;16.11;99.22
19672;BME280;9983;51.114;13.788;2022-10-31T18:29:59;99613.34;;;16.09;99.48
19672;BME280;9983;51.114;13.788;2022-10-31T18:34:59;99614.19;;;16.10;99.11
19672;BME280;9983;51.114;13.788;2022-10-31T18:39:59;99600.03;;;16.14;99.20
19672;BME280;9983;51.114;13.788;2022-10-31T18:45:00;99586.28;;;16.03;100.00
19672;BME280;9983;51.114;13.788;2022-10-31T18:50:00;99584.22;;;16.11;100.00
19672;BME280;9983;51.114;13.788;2022-10-31T18:55:00;99587.75;;;16.18;99.29
19672;BME280;9983;51.114;13.788;2022-10-31T19:00:05;99585.03;;;16.18;98.83
19672;BME280;9983;51.114;13.788;2022-10-31T19:05:06;99581.28;;;16.26;98.55
19672;BME280;9983;51.114;13.788;2022-10-31T19:10:06;99582.13;;;15.93;100.00
19672;BME280;9983;51.114;13.788;2022-10-31T19:15:07;99574.25;;;16.12;98.69
19672;BME280;9983;51.114;13.788;2022-10-31T19:20:07;99576.31;;;15.97;98.96
19672;BME280;9983;51.114;13.788;2022-10-31T19:25:08;99566.31;;;15.77;100.00
19672;BME280;9983;51.114;13.788;2022-10-31T19:30:09;99570.88;;;15.83;99.08
19672;BME280;9983;51.114;13.788;2022-10-31T19:35:10;99572.56;;;15.84;98.42
19672;BME280;9983;51.114;13.788;2022-10-31T19:40:10;99561.53;;;15.79;98.56
19672;BME280;9983;51.114;13.788;2022-10-31T19:45:11;99562.31;;;15.60;96.67
19672;BME280;9983;51.114;13.788;2022-10-31T19:50:11;99550.47;;;15.61;97.47
19672;BME280;9983;51.114;13.788;2022-10-31T19:55:11;99547.09;;;15.46;99.23
19672;BME280;9983;51.114;13.788;2022-10-31T20:00:12;99547.50;;;15.49;99.38
19672;BME280;9983;51.114;13.788;2022-10-31T20:05:12;99550.84;;;15.51;99.59
19672;BME280;9983;51.114;13.788;2022-10-31T20:10:13;99539.88;;;15.66;98.35
19672;BME280;9983;51.114;13.788;2022-10-31T20:15:13;99525.13;;;15.62;98.41
19672;BME280;9983;51.114;13.788;2022-10-31T20:20:13;99516.34;;;15.47;99.04
19672;BME280;9983;51.114;13.788;2022-10-31T20:25:14;99525.81;;;15.16;100.00
19672;BME280;9983;51.114;13.788;2022-10-31T20:30:14;99528.75;;;15.22;100.00
19672;BME280;9983;51.114;13.788;2022-10-31T20:35:14;99523.19;;;15.43;100.00
19672;BME280;9983;51.114;13.788;2022-10-31T20:40:15;99516.38;;;15.53;100.00
19672;BME280;9983;51.114;13.788;2022-10-31T20:45:15;99515.72;;;15.45;100.00
19672;BME280;9983;51.114;13.788;2022-10-31T20:50:16;99509.69;;;15.43;100.00
19672;BME280;9983;51.114;13.788;2022-10-31T20:55:16;99503.91;;;15.66;100.00
19672;BME280;9983;51.114;13.788;2022-10-31T21:00:17;99488.94;;;15.76;98.84
19672;BME280;9983;51.114;13.788;2022-10-31T21:05:17;99499.25;;;15.27;100.00
19672;BME280;9983;51.114;13.788;2022-10-31T21:10:18;99489.72;;;15.44;100.00
19672;BME280;9983;51.114;13.788;2022-10-31T21:15:18;99476.41;;;15.36;100.00
19672;BME280;9983;51.114;13.788;2022-10-31T21:20:18;99483.50;;;15.37;100.00
19672;BME280;9983;51.114;13.788;2022-10-31T21:25:19;99475.97;;;15.26;100.00
19672;BME280;9983;51.114;13.788;2022-10-31T21:30:19;99484.13;;;15.39;100.00
19672;BME280;9983;51.114;13.788;2022-10-31T21:35:20;99475.97;;;15.26;100.00
19672;BME280;9983;51.114;13.788;2022-10-31T21:40:20;99476.03;;;15.39;100.00
19672;BME280;9983;51.114;13.788;2022-10-31T21:45:21;99479.50;;;15.19;100.00
19672;BME280;9983;51.114;13.788;2022-10-31T21:50:21;99458.53;;;15.35;100.00
19672;BME280;9983;51.114;13.788;2022-10-31T21:55:22;99452.31;;;15.41;100.00
19672;BME280;9983;51.114;13.788;2022-10-31T22:00:22;99442.09;;;15.23;100.00
19672;BME280;9983;51.114;13.788;2022-10-31T22:05:22;99437.38;;;15.45;100.00
19672;BME280;9983;51.114;13.788;2022-10-31T22:10:23;99431.75;;;15.53;100.00
19672;BME280;9983;51.114;13.788;2022-10-31T22:15:23;99425.34;;;15.54;100.00
19672;BME280;9983;51.114;13.788;2022-10-31T22:20:23;99410.34;;;15.51;100.00
19672;BME280;9983;51.114;13.788;2022-10-31T22:25:25;99413.66;;;15.21;100.00
19672;BME280;9983;51.114;13.788;2022-10-31T22:30:25;99417.00;;;15.23;100.00
19672;BME280;9983;51.114;13.788;2022-10-31T22:35:25;99428.19;;;15.33;100.00
19672;BME280;9983;51.114;13.788;2022-10-31T22:40:25;99404.94;;;15.32;100.00
19672;BME280;9983;51.114;13.788;2022-10-31T22:45:26;99387.50;;;15.28;100.00
19672;BME280;9983;51.114;13.788;2022-10-31T22:50:26;99381.69;;;15.31;100.00
19672;BME280;9983;51.114;13.788;2022-10-31T22:55:26;99367.94;;;15.26;100.00
19672;BME280;9983;51.114;13.788;2022-10-31T23:00:27;99382.91;;;15.22;100.00
19672;BME280;9983;51.114;13.788;2022-10-31T23:05:27;99372.94;;;15.42;100.00
19672;BME280;9983;51.114;13.788;2022-10-31T23:10:27;99363.00;;;15.55;100.00
19672;BME280;9983;51.114;13.788;2022-10-31T23:15:36;99361.72;;;15.58;100.00
19672;BME280;9983;51.114;13.788;2022-10-31T23:20:36;99356.75;;;15.62;100.00
19672;BME280;9983;51.114;13.788;2022-10-31T23:25:37;99342.59;;;15.53;100.00
19672;BME280;9983;51.114;13.788;2022-10-31T23:30:56;99341.75;;;15.52;100.00
19672;BME280;9983;51.114;13.788;2022-10-31T23:35:56;99325.13;;;15.49;100.00
19672;BME280;9983;51.114;13.788;2022-10-31T23:40:56;99317.28;;;15.54;100.00
19672;BME280;9983;51.114;13.788;2022-10-31T23:45:57;99316.19;;;15.68;100.00
19672;BME280;9983;51.114;13.788;2022-10-31T23:50:57;99310.38;;;15.58;100.00
19672;BME280;9983;51.114;13.788;2022-10-31T23:55:57;99302.69;;;15.42;100.00
